sensor_id;sensor_type;location;lat;lon;timestamp;temperature;humidity
14079;DHT22;7115;50.150;8.568;2022-11-21T00:00:30;6.90;99.90
14079;DHT22;7115;50.150;8.568;2022-11-21T00:02:57;6.90;99.90
14079;DHT22;7115;50.150;8.568;2022-11-21T00:05:28;6.90;99.90
14079;DHT22;7115;50.150;8.568;2022-11-21T00:07:55;6.90;99.90
14079;DHT22;7115;50.150;8.568;2022-11-21T00:10:27;6.90;99.90
14079;DHT22;7115;50.150;8.568;2022-11-21T00:12:55;6.80;99.90
14079;DHT22;7115;50.150;8.568;2022-11-21T00:15:24;6.80;99.90
14079;DHT22;7115;50.150;8.568;2022-11-21T00:17:52;6.80;99.90
14079;DHT22;7115;50.150;8.568;2022-11-21T00:20:20;6.80;99.90
14079;DHT22;7115;50.150;8.568;2022-11-21T00:22:48;6.80;99.90
14079;DHT22;7115;50.150;8.568;2022-11-21T00:25:16;6.80;99.90
14079;DHT22;7115;50.150;8.568;2022-11-21T00:27:44;6.80;99.90
14079;DHT22;7115;50.150;8.568;2022-11-21T00:30:11;6.80;99.90
14079;DHT22;7115;50.150;8.568;2022-11-21T00:32:40;6.70;99.90
14079;DHT22;7115;50.150;8.568;2022-11-21T00:35:07;6.70;99.90
14079;DHT22;7115;50.150;8.568;2022-11-21T00:37:34;6.70;99.90
14079;DHT22;7115;50.150;8.568;2022-11-21T00:40:04;6.70;99.90
14079;DHT22;7115;50.150;8.568;2022-11-21T00:42:31;6.70;99.90
14079;DHT22;7115;50.150;8.568;2022-11-21T00:45:02;6.70;99.90
14079;DHT22;7115;50.150;8.568;2022-11-21T00:47:29;6.70;99.90
14079;DHT22;7115;50.150;8.568;2022-11-21T00:49:56;6.70;99.90
14079;DHT22;7115;50.150;8.568;2022-11-21T00:52:23;6.70;99.90
14079;DHT22;7115;50.150;8.568;2022-11-21T00:54:50;6.70;99.90
14079;DHT22;7115;50.150;8.568;2022-11-21T00:57:17;6.70;99.90
14079;DHT22;7115;50.150;8.568;2022-11-21T00:59:44;6.70;99.90
14079;DHT22;7115;50.150;8.568;2022-11-21T01:02:12;6.70;99.90
14079;DHT22;7115;50.150;8.568;2022-11-21T01:04:39;6.70;99.90
14079;DHT22;7115;50.150;8.568;2022-11-21T01:07:06;6.70;99.90
14079;DHT22;7115;50.150;8.568;2022-11-21T01:09:35;6.70;99.90
14079;DHT22;7115;50.150;8.568;2022-11-21T01:12:02;6.90;99.90
14079;DHT22;7115;50.150;8.568;2022-11-21T01:14:29;6.90;99.90
14079;DHT22;7115;50.150;8.568;2022-11-21T01:16:56;6.90;99.90
14079;DHT22;7115;50.150;8.568;2022-11-21T01:19:25;6.90;99.90
14079;DHT22;7115;50.150;8.568;2022-11-21T01:21:52;6.90;99.90
14079;DHT22;7115;50.150;8.568;2022-11-21T01:24:21;6.80;99.90
14079;DHT22;7115;50.150;8.568;2022-11-21T01:26:48;6.80;99.90
14079;DHT22;7115;50.150;8.568;2022-11-21T01:29:17;6.80;99.90
14079;DHT22;7115;50.150;8.568;2022-11-21T01:31:44;6.80;99.90
14079;DHT22;7115;50.150;8.568;2022-11-21T01:34:11;6.80;99.90
14079;DHT22;7115;50.150;8.568;2022-11-21T01:36:42;6.80;99.90
14079;DHT22;7115;50.150;8.568;2022-11-21T01:39:10;6.80;99.90
14079;DHT22;7115;50.150;8.568;2022-11-21T01:41:39;6.80;99.90
14079;DHT22;7115;50.150;8.568;2022-11-21T01:44:15;6.80;99.90
14079;DHT22;7115;50.150;8.568;2022-11-21T01:46:42;6.80;99.90
14079;DHT22;7115;50.150;8.568;2022-11-21T01:49:13;6.70;99.90
14079;DHT22;7115;50.150;8.568;2022-11-21T01:51:47;6.70;99.90
14079;DHT22;7115;50.150;8.568;2022-11-21T01:54:19;6.70;99.90
14079;DHT22;7115;50.150;8.568;2022-11-21T01:56:54;6.80;99.90
14079;DHT22;7115;50.150;8.568;2022-11-21T01:59:24;6.80;99.90
14079;DHT22;7115;50.150;8.568;2022-11-21T02:01:54;6.80;99.90
14079;DHT22;7115;50.150;8.568;2022-11-21T02:04:23;6.80;99.90
14079;DHT22;7115;50.150;8.568;2022-11-21T02:06:56;6.80;99.90
14079;DHT22;7115;50.150;8.568;2022-11-21T02:09:24;6.80;99.90
14079;DHT22;7115;50.150;8.568;2022-11-21T02:11:54;6.80;99.90
14079;DHT22;7115;50.150;8.568;2022-11-21T02:14:23;6.90;99.90
14079;DHT22;7115;50.150;8.568;2022-11-21T02:16:53;6.90;99.90
14079;DHT22;7115;50.150;8.568;2022-11-21T02:19:27;6.90;99.90
14079;DHT22;7115;50.150;8.568;2022-11-21T02:22:04;6.90;99.90
14079;DHT22;7115;50.150;8.568;2022-11-21T02:24:38;6.90;99.90
14079;DHT22;7115;50.150;8.568;2022-11-21T02:27:08;6.90;99.90
14079;DHT22;7115;50.150;8.568;2022-11-21T02:29:36;6.90;99.90
14079;DHT22;7115;50.150;8.568;2022-11-21T02:32:03;6.90;99.90
14079;DHT22;7115;50.150;8.568;2022-11-21T02:34:33;6.90;99.90
14079;DHT22;7115;50.150;8.568;2022-11-21T02:37:01;6.90;99.90
14079;DHT22;7115;50.150;8.568;2022-11-21T02:39:31;6.90;99.90
14079;DHT22;7115;50.150;8.568;2022-11-21T02:42:04;6.80;99.90
14079;DHT22;7115;50.150;8.568;2022-11-21T02:44:37;6.80;99.90
14079;DHT22;7115;50.150;8.568;2022-11-21T02:47:05;6.80;99.90
14079;DHT22;7115;50.150;8.568;2022-11-21T02:49:49;6.80;99.90
14079;DHT22;7115;50.150;8.568;2022-11-21T02:52:19;6.70;99.90
14079;DHT22;7115;50.150;8.568;2022-11-21T02:54:46;6.70;99.90
14079;DHT22;7115;50.150;8.568;2022-11-21T02:57:13;6.70;99.90
14079;DHT22;7115;50.150;8.568;2022-11-21T02:59:42;6.70;99.90
14079;DHT22;7115;50.150;8.568;2022-11-21T03:02:08;6.70;99.90
14079;DHT22;7115;50.150;8.568;2022-11-21T03:04:35;6.70;99.90
14079;DHT22;7115;50.150;8.568;2022-11-21T03:07:03;6.70;99.90
14079;DHT22;7115;50.150;8.568;2022-11-21T03:09:30;6.70;99.90
14079;DHT22;7115;50.150;8.568;2022-11-21T03:11:57;6.60;99.90
14079;DHT22;7115;50.150;8.568;2022-11-21T03:14:24;6.60;99.90
14079;DHT22;7115;50.150;8.568;2022-11-21T03:16:53;6.60;99.90
14079;DHT22;7115;50.150;8.568;2022-11-21T03:19:20;6.60;99.90
14079;DHT22;7115;50.150;8.568;2022-11-21T03:21:49;6.60;99.90
14079;DHT22;7115;50.150;8.568;2022-11-21T03:24:16;6.60;99.90
14079;DHT22;7115;50.150;8.568;2022-11-21T03:26:43;6.70;99.90
14079;DHT22;7115;50.150;8.568;2022-11-21T03:29:11;6.70;99.90
14079;DHT22;7115;50.150;8.568;2022-11-21T03:31:39;6.70;99.90
14079;DHT22;7115;50.150;8.568;2022-11-21T03:34:13;6.70;99.90
14079;DHT22;7115;50.150;8.568;2022-11-21T03:36:40;6.80;99.90
14079;DHT22;7115;50.150;8.568;2022-11-21T03:39:07;6.80;99.90
14079;DHT22;7115;50.150;8.568;2022-11-21T03:41:36;6.80;99.90
14079;DHT22;7115;50.150;8.568;2022-11-21T03:44:05;6.80;99.90
14079;DHT22;7115;50.150;8.568;2022-11-21T03:46:34;6.80;99.90
14079;DHT22;7115;50.150;8.568;2022-11-21T03:49:01;6.80;99.90
14079;DHT22;7115;50.150;8.568;2022-11-21T03:51:30;6.90;99.90
14079;DHT22;7115;50.150;8.568;2022-11-21T03:53:57;6.90;99.90
14079;DHT22;7115;50.150;8.568;2022-11-21T03:56:24;6.90;99.90
14079;DHT22;7115;50.150;8.568;2022-11-21T03:58:52;7.00;99.90
14079;DHT22;7115;50.150;8.568;2022-11-21T04:01:19;7.00;99.90
14079;DHT22;7115;50.150;8.568;2022-11-21T04:03:46;7.00;99.90
14079;DHT22;7115;50.150;8.568;2022-11-21T04:06:15;7.10;99.90
14079;DHT22;7115;50.150;8.568;2022-11-21T04:08:45;7.10;99.90
14079;DHT22;7115;50.150;8.568;2022-11-21T04:11:12;7.10;99.90
14079;DHT22;7115;50.150;8.568;2022-11-21T04:13:39;7.10;99.90
14079;DHT22;7115;50.150;8.568;2022-11-21T04:16:06;7.10;99.90
14079;DHT22;7115;50.150;8.568;2022-11-21T04:18:33;7.10;99.90
14079;DHT22;7115;50.150;8.568;2022-11-21T04:21:02;7.10;99.90
14079;DHT22;7115;50.150;8.568;2022-11-21T04:23:29;7.10;99.90
14079;DHT22;7115;50.150;8.568;2022-11-21T04:25:58;7.10;99.90
14079;DHT22;7115;50.150;8.568;2022-11-21T04:28:25;7.20;99.90
14079;DHT22;7115;50.150;8.568;2022-11-21T04:30:52;7.20;99.90
14079;DHT22;7115;50.150;8.568;2022-11-21T04:33:21;7.10;99.90
14079;DHT22;7115;50.150;8.568;2022-11-21T04:35:48;7.10;99.90
14079;DHT22;7115;50.150;8.568;2022-11-21T04:38:15;7.10;99.90
14079;DHT22;7115;50.150;8.568;2022-11-21T04:40:42;7.10;99.90
14079;DHT22;7115;50.150;8.568;2022-11-21T04:43:11;7.10;99.90
14079;DHT22;7115;50.150;8.568;2022-11-21T04:45:38;7.10;99.90
14079;DHT22;7115;50.150;8.568;2022-11-21T04:48:05;7.10;99.90
14079;DHT22;7115;50.150;8.568;2022-11-21T04:50:32;7.10;99.90
14079;DHT22;7115;50.150;8.568;2022-11-21T04:52:59;7.10;99.90
14079;DHT22;7115;50.150;8.568;2022-11-21T04:55:29;7.20;99.90
14079;DHT22;7115;50.150;8.568;2022-11-21T04:57:57;7.20;99.90
14079;DHT22;7115;50.150;8.568;2022-11-21T05:00:26;7.20;99.90
14079;DHT22;7115;50.150;8.568;2022-11-21T05:02:53;7.20;99.90
14079;DHT22;7115;50.150;8.568;2022-11-21T05:05:20;7.20;99.90
14079;DHT22;7115;50.150;8.568;2022-11-21T05:07:47;7.30;99.90
14079;DHT22;7115;50.150;8.568;2022-11-21T05:10:14;7.20;99.90
14079;DHT22;7115;50.150;8.568;2022-11-21T05:12:41;7.20;99.90
14079;DHT22;7115;50.150;8.568;2022-11-21T05:15:55;7.20;99.90
14079;DHT22;7115;50.150;8.568;2022-11-21T05:18:23;7.20;99.90
14079;DHT22;7115;50.150;8.568;2022-11-21T05:20:50;7.10;99.90
14079;DHT22;7115;50.150;8.568;2022-11-21T05:23:19;7.10;99.90
14079;DHT22;7115;50.150;8.568;2022-11-21T05:25:46;7.10;99.90
14079;DHT22;7115;50.150;8.568;2022-11-21T05:28:13;7.10;99.90
14079;DHT22;7115;50.150;8.568;2022-11-21T05:30:42;7.10;99.90
14079;DHT22;7115;50.150;8.568;2022-11-21T05:33:10;7.00;99.90
14079;DHT22;7115;50.150;8.568;2022-11-21T05:35:37;7.00;99.90
14079;DHT22;7115;50.150;8.568;2022-11-21T05:38:09;7.00;99.90
14079;DHT22;7115;50.150;8.568;2022-11-21T05:40:36;7.00;99.90
14079;DHT22;7115;50.150;8.568;2022-11-21T05:43:03;7.00;99.90
14079;DHT22;7115;50.150;8.568;2022-11-21T05:45:49;6.90;99.90
14079;DHT22;7115;50.150;8.568;2022-11-21T05:48:18;6.90;99.90
14079;DHT22;7115;50.150;8.568;2022-11-21T05:50:46;6.90;99.90
14079;DHT22;7115;50.150;8.568;2022-11-21T05:53:14;6.80;99.90
14079;DHT22;7115;50.150;8.568;2022-11-21T05:55:41;6.80;99.90
14079;DHT22;7115;50.150;8.568;2022-11-21T05:58:09;6.80;99.90
14079;DHT22;7115;50.150;8.568;2022-11-21T06:00:36;6.80;99.90
14079;DHT22;7115;50.150;8.568;2022-11-21T06:03:04;6.80;99.90
14079;DHT22;7115;50.150;8.568;2022-11-21T06:05:57;6.90;99.90
14079;DHT22;7115;50.150;8.568;2022-11-21T06:08:26;6.90;99.90
14079;DHT22;7115;50.150;8.568;2022-11-21T06:10:53;6.90;99.90
14079;DHT22;7115;50.150;8.568;2022-11-21T06:13:20;6.90;99.90
14079;DHT22;7115;50.150;8.568;2022-11-21T06:15:49;6.80;99.90
14079;DHT22;7115;50.150;8.568;2022-11-21T06:18:16;6.80;99.90
14079;DHT22;7115;50.150;8.568;2022-11-21T06:20:43;6.80;99.90
14079;DHT22;7115;50.150;8.568;2022-11-21T06:23:12;6.80;99.90
14079;DHT22;7115;50.150;8.568;2022-11-21T06:25:39;6.80;99.90
14079;DHT22;7115;50.150;8.568;2022-11-21T06:28:06;6.70;99.90
14079;DHT22;7115;50.150;8.568;2022-11-21T06:30:33;6.70;99.90
14079;DHT22;7115;50.150;8.568;2022-11-21T06:33:03;6.70;99.90
14079;DHT22;7115;50.150;8.568;2022-11-21T06:35:30;6.70;99.90
14079;DHT22;7115;50.150;8.568;2022-11-21T06:37:57;6.70;99.90
14079;DHT22;7115;50.150;8.568;2022-11-21T06:40:26;6.70;99.90
14079;DHT22;7115;50.150;8.568;2022-11-21T06:42:53;6.60;99.90
14079;DHT22;7115;50.150;8.568;2022-11-21T06:45:20;6.60;99.90
14079;DHT22;7115;50.150;8.568;2022-11-21T06:47:47;6.60;99.90
14079;DHT22;7115;50.150;8.568;2022-11-21T06:50:15;6.60;99.90
14079;DHT22;7115;50.150;8.568;2022-11-21T06:52:42;6.60;99.90
14079;DHT22;7115;50.150;8.568;2022-11-21T06:55:09;6.50;99.90
14079;DHT22;7115;50.150;8.568;2022-11-21T06:57:39;6.50;99.90
14079;DHT22;7115;50.150;8.568;2022-11-21T07:00:07;6.50;99.90
14079;DHT22;7115;50.150;8.568;2022-11-21T07:02:34;6.50;99.90
14079;DHT22;7115;50.150;8.568;2022-11-21T07:05:01;6.50;99.90
14079;DHT22;7115;50.150;8.568;2022-11-21T07:07:27;6.50;99.90
14079;DHT22;7115;50.150;8.568;2022-11-21T07:09:55;6.50;99.90
14079;DHT22;7115;50.150;8.568;2022-11-21T07:12:23;6.50;99.90
14079;DHT22;7115;50.150;8.568;2022-11-21T07:15:10;6.60;99.90
14079;DHT22;7115;50.150;8.568;2022-11-21T07:17:37;6.60;99.90
14079;DHT22;7115;50.150;8.568;2022-11-21T07:20:08;6.60;99.90
14079;DHT22;7115;50.150;8.568;2022-11-21T07:22:35;6.70;99.90
14079;DHT22;7115;50.150;8.568;2022-11-21T07:25:02;6.80;99.90
14079;DHT22;7115;50.150;8.568;2022-11-21T07:27:30;6.70;99.90
14079;DHT22;7115;50.150;8.568;2022-11-21T07:29:56;6.70;99.90
14079;DHT22;7115;50.150;8.568;2022-11-21T07:32:27;6.70;99.90
14079;DHT22;7115;50.150;8.568;2022-11-21T07:34:54;6.70;99.90
14079;DHT22;7115;50.150;8.568;2022-11-21T07:37:22;6.70;99.90
14079;DHT22;7115;50.150;8.568;2022-11-21T07:39:49;6.70;99.90
14079;DHT22;7115;50.150;8.568;2022-11-21T07:42:16;6.80;99.90
14079;DHT22;7115;50.150;8.568;2022-11-21T07:44:43;6.90;99.90
14079;DHT22;7115;50.150;8.568;2022-11-21T07:47:11;6.80;99.90
14079;DHT22;7115;50.150;8.568;2022-11-21T07:49:40;6.90;99.90
14079;DHT22;7115;50.150;8.568;2022-11-21T07:52:07;6.90;99.90
14079;DHT22;7115;50.150;8.568;2022-11-21T07:54:34;6.90;99.90
14079;DHT22;7115;50.150;8.568;2022-11-21T07:57:02;6.90;99.90
14079;DHT22;7115;50.150;8.568;2022-11-21T07:59:29;7.00;99.90
14079;DHT22;7115;50.150;8.568;2022-11-21T08:01:57;7.00;99.90
14079;DHT22;7115;50.150;8.568;2022-11-21T08:04:25;7.10;99.90
14079;DHT22;7115;50.150;8.568;2022-11-21T08:06:54;7.20;99.90
14079;DHT22;7115;50.150;8.568;2022-11-21T08:09:22;7.30;99.90
14079;DHT22;7115;50.150;8.568;2022-11-21T08:11:53;7.40;99.90
14079;DHT22;7115;50.150;8.568;2022-11-21T08:14:20;7.50;99.90
14079;DHT22;7115;50.150;8.568;2022-11-21T08:16:51;7.70;99.90
14079;DHT22;7115;50.150;8.568;2022-11-21T08:19:18;7.70;99.90
14079;DHT22;7115;50.150;8.568;2022-11-21T08:21:46;7.70;99.90
14079;DHT22;7115;50.150;8.568;2022-11-21T08:24:14;7.70;99.90
14079;DHT22;7115;50.150;8.568;2022-11-21T08:26:43;7.70;99.90
14079;DHT22;7115;50.150;8.568;2022-11-21T08:29:11;7.60;99.90
14079;DHT22;7115;50.150;8.568;2022-11-21T08:31:39;7.60;99.90
14079;DHT22;7115;50.150;8.568;2022-11-21T08:34:06;7.60;99.90
14079;DHT22;7115;50.150;8.568;2022-11-21T08:36:40;7.60;99.90
14079;DHT22;7115;50.150;8.568;2022-11-21T08:39:07;7.50;99.90
14079;DHT22;7115;50.150;8.568;2022-11-21T08:41:35;7.60;99.90
14079;DHT22;7115;50.150;8.568;2022-11-21T08:44:21;7.60;99.90
14079;DHT22;7115;50.150;8.568;2022-11-21T08:46:48;7.60;99.90
14079;DHT22;7115;50.150;8.568;2022-11-21T08:49:15;7.70;99.90
14079;DHT22;7115;50.150;8.568;2022-11-21T08:51:42;7.80;99.90
14079;DHT22;7115;50.150;8.568;2022-11-21T08:54:09;8.40;99.90
14079;DHT22;7115;50.150;8.568;2022-11-21T08:56:37;9.30;99.90
14079;DHT22;7115;50.150;8.568;2022-11-21T08:59:04;10.30;99.90
14079;DHT22;7115;50.150;8.568;2022-11-21T09:01:31;11.00;99.90
14079;DHT22;7115;50.150;8.568;2022-11-21T09:03:59;11.40;99.90
14079;DHT22;7115;50.150;8.568;2022-11-21T09:06:27;11.40;99.90
14079;DHT22;7115;50.150;8.568;2022-11-21T09:08:54;11.10;99.90
14079;DHT22;7115;50.150;8.568;2022-11-21T09:11:21;10.70;99.90
14079;DHT22;7115;50.150;8.568;2022-11-21T09:13:52;10.30;99.90
14079;DHT22;7115;50.150;8.568;2022-11-21T09:16:38;9.90;99.90
14079;DHT22;7115;50.150;8.568;2022-11-21T09:19:28;9.60;99.90
14079;DHT22;7115;50.150;8.568;2022-11-21T09:21:55;9.20;99.90
14079;DHT22;7115;50.150;8.568;2022-11-21T09:24:22;9.00;99.90
14079;DHT22;7115;50.150;8.568;2022-11-21T09:26:50;8.80;99.90
14079;DHT22;7115;50.150;8.568;2022-11-21T09:29:18;8.70;99.90
14079;DHT22;7115;50.150;8.568;2022-11-21T09:31:46;8.50;99.90
14079;DHT22;7115;50.150;8.568;2022-11-21T09:34:14;8.50;99.90
14079;DHT22;7115;50.150;8.568;2022-11-21T09:36:41;8.50;99.90
14079;DHT22;7115;50.150;8.568;2022-11-21T09:39:08;8.50;99.90
14079;DHT22;7115;50.150;8.568;2022-11-21T09:41:40;8.70;99.90
14079;DHT22;7115;50.150;8.568;2022-11-21T09:44:43;9.10;99.90
14079;DHT22;7115;50.150;8.568;2022-11-21T09:47:20;9.90;99.90
14079;DHT22;7115;50.150;8.568;2022-11-21T09:49:52;11.10;99.90
14079;DHT22;7115;50.150;8.568;2022-11-21T09:52:25;11.90;99.90
14079;DHT22;7115;50.150;8.568;2022-11-21T09:54:57;12.60;99.90
14079;DHT22;7115;50.150;8.568;2022-11-21T09:57:25;12.80;99.90
14079;DHT22;7115;50.150;8.568;2022-11-21T10:00:03;12.80;99.90
14079;DHT22;7115;50.150;8.568;2022-11-21T10:02:40;13.00;99.90
14079;DHT22;7115;50.150;8.568;2022-11-21T10:05:11;13.50;99.90
14079;DHT22;7115;50.150;8.568;2022-11-21T10:07:39;13.80;99.90
14079;DHT22;7115;50.150;8.568;2022-11-21T10:10:26;13.60;99.90
14079;DHT22;7115;50.150;8.568;2022-11-21T10:13:05;13.20;99.90
14079;DHT22;7115;50.150;8.568;2022-11-21T10:15:47;12.60;99.90
14079;DHT22;7115;50.150;8.568;2022-11-21T10:18:46;12.00;99.90
14079;DHT22;7115;50.150;8.568;2022-11-21T10:21:29;11.50;99.90
14079;DHT22;7115;50.150;8.568;2022-11-21T10:24:15;11.20;99.90
14079;DHT22;7115;50.150;8.568;2022-11-21T10:26:50;11.20;99.90
14079;DHT22;7115;50.150;8.568;2022-11-21T10:29:21;11.40;99.90
14079;DHT22;7115;50.150;8.568;2022-11-21T10:31:56;11.70;99.90
14079;DHT22;7115;50.150;8.568;2022-11-21T10:34:28;12.10;99.90
14079;DHT22;7115;50.150;8.568;2022-11-21T10:36:59;12.80;99.90
14079;DHT22;7115;50.150;8.568;2022-11-21T10:39:40;13.30;99.90
14079;DHT22;7115;50.150;8.568;2022-11-21T10:42:15;13.80;99.90
14079;DHT22;7115;50.150;8.568;2022-11-21T10:44:50;14.30;99.90
14079;DHT22;7115;50.150;8.568;2022-11-21T10:47:37;14.60;99.90
14079;DHT22;7115;50.150;8.568;2022-11-21T10:50:14;14.40;99.90
14079;DHT22;7115;50.150;8.568;2022-11-21T10:52:48;14.00;99.90
14079;DHT22;7115;50.150;8.568;2022-11-21T10:55:16;13.40;99.90
14079;DHT22;7115;50.150;8.568;2022-11-21T10:57:45;12.90;99.90
14079;DHT22;7115;50.150;8.568;2022-11-21T11:00:16;12.40;99.90
14079;DHT22;7115;50.150;8.568;2022-11-21T11:03:01;12.00;99.90
14079;DHT22;7115;50.150;8.568;2022-11-21T11:05:31;11.60;99.90
14079;DHT22;7115;50.150;8.568;2022-11-21T11:08:01;11.40;99.90
14079;DHT22;7115;50.150;8.568;2022-11-21T11:10:30;11.20;99.90
14079;DHT22;7115;50.150;8.568;2022-11-21T11:12:58;11.00;99.90
14079;DHT22;7115;50.150;8.568;2022-11-21T11:16:09;10.90;99.90
14079;DHT22;7115;50.150;8.568;2022-11-21T11:18:49;10.70;99.90
14079;DHT22;7115;50.150;8.568;2022-11-21T11:21:19;10.60;99.90
14079;DHT22;7115;50.150;8.568;2022-11-21T11:23:48;10.50;99.90
14079;DHT22;7115;50.150;8.568;2022-11-21T11:26:20;10.40;99.90
14079;DHT22;7115;50.150;8.568;2022-11-21T11:28:48;10.40;99.90
14079;DHT22;7115;50.150;8.568;2022-11-21T11:31:16;10.20;99.90
14079;DHT22;7115;50.150;8.568;2022-11-21T11:33:52;10.10;99.90
14079;DHT22;7115;50.150;8.568;2022-11-21T11:36:33;9.90;99.90
14079;DHT22;7115;50.150;8.568;2022-11-21T11:39:10;9.90;99.90
14079;DHT22;7115;50.150;8.568;2022-11-21T11:45:14;9.60;99.90
14079;DHT22;7115;50.150;8.568;2022-11-21T11:48:02;9.50;99.90
14079;DHT22;7115;50.150;8.568;2022-11-21T11:50:36;9.40;99.90
14079;DHT22;7115;50.150;8.568;2022-11-21T11:53:10;9.30;99.90
14079;DHT22;7115;50.150;8.568;2022-11-21T11:55:42;9.30;99.90
14079;DHT22;7115;50.150;8.568;2022-11-21T11:58:18;9.30;99.90
14079;DHT22;7115;50.150;8.568;2022-11-21T12:00:50;9.40;99.90
14079;DHT22;7115;50.150;8.568;2022-11-21T12:03:23;9.40;99.90
14079;DHT22;7115;50.150;8.568;2022-11-21T12:06:00;9.40;99.90
14079;DHT22;7115;50.150;8.568;2022-11-21T12:08:41;9.30;99.90
14079;DHT22;7115;50.150;8.568;2022-11-21T12:11:27;9.30;99.90
14079;DHT22;7115;50.150;8.568;2022-11-21T12:14:22;9.40;99.90
14079;DHT22;7115;50.150;8.568;2022-11-21T12:17:15;9.40;99.90
14079;DHT22;7115;50.150;8.568;2022-11-21T12:19:47;9.40;99.90
14079;DHT22;7115;50.150;8.568;2022-11-21T12:22:17;9.30;99.90
14079;DHT22;7115;50.150;8.568;2022-11-21T12:24:44;9.40;99.90
14079;DHT22;7115;50.150;8.568;2022-11-21T12:27:20;9.40;99.90
14079;DHT22;7115;50.150;8.568;2022-11-21T12:30:02;9.40;99.90
14079;DHT22;7115;50.150;8.568;2022-11-21T12:32:44;9.40;99.90
14079;DHT22;7115;50.150;8.568;2022-11-21T12:35:31;9.30;99.90
14079;DHT22;7115;50.150;8.568;2022-11-21T12:38:15;9.30;99.90
14079;DHT22;7115;50.150;8.568;2022-11-21T12:40:52;9.30;99.90
14079;DHT22;7115;50.150;8.568;2022-11-21T12:43:30;9.30;99.90
14079;DHT22;7115;50.150;8.568;2022-11-21T12:46:06;9.30;99.90
14079;DHT22;7115;50.150;8.568;2022-11-21T12:48:44;9.30;99.90
14079;DHT22;7115;50.150;8.568;2022-11-21T12:51:44;9.30;99.90
14079;DHT22;7115;50.150;8.568;2022-11-21T12:55:00;9.40;99.90
14079;DHT22;7115;50.150;8.568;2022-11-21T12:57:49;9.50;99.90
14079;DHT22;7115;50.150;8.568;2022-11-21T13:00:25;9.50;99.90
14079;DHT22;7115;50.150;8.568;2022-11-21T13:06:03;9.80;99.90
14079;DHT22;7115;50.150;8.568;2022-11-21T13:08:35;9.80;99.90
14079;DHT22;7115;50.150;8.568;2022-11-21T13:11:09;9.70;99.90
14079;DHT22;7115;50.150;8.568;2022-11-21T13:14:01;9.70;99.90
14079;DHT22;7115;50.150;8.568;2022-11-21T13:16:33;9.80;99.90
14079;DHT22;7115;50.150;8.568;2022-11-21T13:19:13;9.80;99.90
14079;DHT22;7115;50.150;8.568;2022-11-21T13:21:44;9.80;99.90
14079;DHT22;7115;50.150;8.568;2022-11-21T13:24:53;9.80;99.90
14079;DHT22;7115;50.150;8.568;2022-11-21T13:27:31;9.80;99.90
14079;DHT22;7115;50.150;8.568;2022-11-21T13:30:23;9.80;99.90
14079;DHT22;7115;50.150;8.568;2022-11-21T13:32:51;9.80;99.90
14079;DHT22;7115;50.150;8.568;2022-11-21T13:44:48;9.90;99.90
14079;DHT22;7115;50.150;8.568;2022-11-21T13:47:37;9.90;99.90
14079;DHT22;7115;50.150;8.568;2022-11-21T13:50:30;9.90;99.90
14079;DHT22;7115;50.150;8.568;2022-11-21T13:53:09;9.90;99.90
14079;DHT22;7115;50.150;8.568;2022-11-21T13:55:49;9.90;99.90
14079;DHT22;7115;50.150;8.568;2022-11-21T13:58:30;9.90;99.90
14079;DHT22;7115;50.150;8.568;2022-11-21T14:01:33;9.80;99.90
14079;DHT22;7115;50.150;8.568;2022-11-21T14:04:19;9.80;99.90
14079;DHT22;7115;50.150;8.568;2022-11-21T14:06:49;9.80;99.90
14079;DHT22;7115;50.150;8.568;2022-11-21T14:09:19;9.70;99.90
14079;DHT22;7115;50.150;8.568;2022-11-21T14:11:49;9.70;99.90
14079;DHT22;7115;50.150;8.568;2022-11-21T14:14:30;9.80;99.90
14079;DHT22;7115;50.150;8.568;2022-11-21T14:17:13;9.80;99.90
14079;DHT22;7115;50.150;8.568;2022-11-21T14:19:44;9.80;99.90
14079;DHT22;7115;50.150;8.568;2022-11-21T14:22:15;9.90;99.90
14079;DHT22;7115;50.150;8.568;2022-11-21T14:24:50;9.90;99.90
14079;DHT22;7115;50.150;8.568;2022-11-21T14:27:26;9.90;99.90
14079;DHT22;7115;50.150;8.568;2022-11-21T14:29:54;10.00;99.90
14079;DHT22;7115;50.150;8.568;2022-11-21T14:32:28;10.00;99.90
14079;DHT22;7115;50.150;8.568;2022-11-21T14:35:17;10.00;99.90
14079;DHT22;7115;50.150;8.568;2022-11-21T14:37:44;9.90;99.90
14079;DHT22;7115;50.150;8.568;2022-11-21T14:40:12;9.90;99.90
14079;DHT22;7115;50.150;8.568;2022-11-21T14:42:39;9.80;99.90
14079;DHT22;7115;50.150;8.568;2022-11-21T14:45:14;9.80;99.90
14079;DHT22;7115;50.150;8.568;2022-11-21T14:47:47;9.70;99.90
14079;DHT22;7115;50.150;8.568;2022-11-21T14:50:29;9.80;99.90
14079;DHT22;7115;50.150;8.568;2022-11-21T14:52:59;9.80;99.90
14079;DHT22;7115;50.150;8.568;2022-11-21T14:55:28;9.80;99.90
14079;DHT22;7115;50.150;8.568;2022-11-21T14:57:59;9.80;99.90
14079;DHT22;7115;50.150;8.568;2022-11-21T15:00:28;9.90;99.90
14079;DHT22;7115;50.150;8.568;2022-11-21T15:03:19;9.90;99.90
14079;DHT22;7115;50.150;8.568;2022-11-21T15:05:48;9.80;99.90
14079;DHT22;7115;50.150;8.568;2022-11-21T15:08:36;9.80;99.90
14079;DHT22;7115;50.150;8.568;2022-11-21T15:11:28;9.70;99.90
14079;DHT22;7115;50.150;8.568;2022-11-21T15:14:01;9.50;99.90
14079;DHT22;7115;50.150;8.568;2022-11-21T15:16:45;9.40;99.90
14079;DHT22;7115;50.150;8.568;2022-11-21T15:19:21;9.30;99.90
14079;DHT22;7115;50.150;8.568;2022-11-21T15:21:49;9.30;99.90
14079;DHT22;7115;50.150;8.568;2022-11-21T15:24:25;9.20;99.90
14079;DHT22;7115;50.150;8.568;2022-11-21T15:26:53;9.20;99.90
14079;DHT22;7115;50.150;8.568;2022-11-21T15:29:21;9.20;99.90
14079;DHT22;7115;50.150;8.568;2022-11-21T15:32:07;9.10;99.90
14079;DHT22;7115;50.150;8.568;2022-11-21T15:34:41;9.10;99.90
14079;DHT22;7115;50.150;8.568;2022-11-21T15:37:14;9.10;99.90
14079;DHT22;7115;50.150;8.568;2022-11-21T15:39:42;9.10;99.90
14079;DHT22;7115;50.150;8.568;2022-11-21T15:42:34;9.10;99.90
14079;DHT22;7115;50.150;8.568;2022-11-21T15:45:17;9.00;99.90
14079;DHT22;7115;50.150;8.568;2022-11-21T15:47:47;9.00;99.90
14079;DHT22;7115;50.150;8.568;2022-11-21T15:50:16;8.90;99.90
14079;DHT22;7115;50.150;8.568;2022-11-21T15:52:44;8.90;99.90
14079;DHT22;7115;50.150;8.568;2022-11-21T15:55:12;8.80;99.90
14079;DHT22;7115;50.150;8.568;2022-11-21T15:57:42;8.80;99.90
14079;DHT22;7115;50.150;8.568;2022-11-21T16:00:10;8.80;99.90
14079;DHT22;7115;50.150;8.568;2022-11-21T16:02:37;8.70;99.90
14079;DHT22;7115;50.150;8.568;2022-11-21T16:05:05;8.70;99.90
14079;DHT22;7115;50.150;8.568;2022-11-21T16:07:33;8.70;99.90
14079;DHT22;7115;50.150;8.568;2022-11-21T16:10:00;8.60;99.90
14079;DHT22;7115;50.150;8.568;2022-11-21T16:12:27;8.50;99.90
14079;DHT22;7115;50.150;8.568;2022-11-21T16:14:54;8.50;99.90
14079;DHT22;7115;50.150;8.568;2022-11-21T16:17:21;8.50;99.90
14079;DHT22;7115;50.150;8.568;2022-11-21T16:19:48;8.50;99.90
14079;DHT22;7115;50.150;8.568;2022-11-21T16:22:15;8.50;99.90
14079;DHT22;7115;50.150;8.568;2022-11-21T16:24:43;8.50;99.90
14079;DHT22;7115;50.150;8.568;2022-11-21T16:27:10;8.50;99.90
14079;DHT22;7115;50.150;8.568;2022-11-21T16:29:37;8.40;99.90
14079;DHT22;7115;50.150;8.568;2022-11-21T16:32:04;8.20;99.90
14079;DHT22;7115;50.150;8.568;2022-11-21T16:34:32;8.40;99.90
14079;DHT22;7115;50.150;8.568;2022-11-21T16:36:59;8.40;99.90
14079;DHT22;7115;50.150;8.568;2022-11-21T16:39:33;8.40;99.90
14079;DHT22;7115;50.150;8.568;2022-11-21T16:42:02;8.30;99.90
14079;DHT22;7115;50.150;8.568;2022-11-21T16:44:29;8.30;99.90